Time;durP1;ratioP1;P1;durP2;ratioP2;P2;SDS_P1;SDS_P2;PMS_P1;PMS_P2;Temp;Humidity;BMP_temperature;BMP_pressure;BME280_temperature;BME280_humidity;BME280_pressure;Samples;Min_cycle;Max_cycle;Signal;HPM_P1;HPM_P2
2022/05/18 00:02:11;;;;;;;10.55;6.15;;;;;;;16.15;100.00;101813.41;5095830;28;20028;-61
2022/05/18 00:04:36;;;;;;;6.97;5.63;;;;;;;16.11;100.00;101806.31;5099670;28;20022;-61
2022/05/18 00:07:01;;;;;;;8.73;5.53;;;;;;;16.10;100.00;101815.03;5099503;28;20077;-61
2022/05/18 00:09:26;;;;;;;7.10;5.90;;;;;;;16.04;100.00;101815.75;5103589;28;20015;-61
2022/05/18 00:11:52;;;;;;;7.15;5.90;;;;;;;16.01;100.00;101815.69;5100429;28;20019;-61
2022/05/18 00:14:17;;;;;;;7.57;6.88;;;;;;;15.96;100.00;101812.91;5100755;28;20080;-61
2022/05/18 00:16:42;;;;;;;7.85;6.40;;;;;;;15.89;100.00;101821.41;5098576;28;20030;-61
2022/05/18 00:19:08;;;;;;;8.77;7.07;;;;;;;15.79;100.00;101818.59;5097170;28;20023;-60
2022/05/18 00:21:33;;;;;;;6.90;6.20;;;;;;;15.73;100.00;101821.03;5098658;28;20102;-61
2022/05/18 00:23:59;;;;;;;8.98;6.05;;;;;;;15.73;100.00;101821.03;5099716;27;20028;-61
2022/05/18 00:26:25;;;;;;;7.30;6.50;;;;;;;15.75;100.00;101823.69;5100287;28;20027;-60
2022/05/18 00:28:51;;;;;;;10.05;6.90;;;;;;;15.74;100.00;101828.00;5094739;28;20292;-61
2022/05/18 00:31:19;;;;;;;8.80;6.72;;;;;;;15.73;100.00;101816.69;5103860;28;20019;-60
2022/05/18 00:33:45;;;;;;;7.47;6.65;;;;;;;15.72;100.00;101821.91;5095016;28;20012;-61
2022/05/18 00:36:10;;;;;;;8.18;6.82;;;;;;;15.70;100.00;101820.97;5102042;28;20048;-61
2022/05/18 00:38:36;;;;;;;7.97;7.03;;;;;;;15.70;100.00;101820.97;5096212;28;20049;-61
2022/05/18 00:41:01;;;;;;;9.60;7.00;;;;;;;15.68;100.00;101822.66;5098053;28;20035;-60
2022/05/18 00:43:29;;;;;;;9.63;7.63;;;;;;;15.64;100.00;101816.47;5099653;28;20039;-61
2022/05/18 00:45:56;;;;;;;9.35;7.30;;;;;;;15.60;100.00;101820.72;5099221;28;20023;-61
2022/05/18 00:48:21;;;;;;;7.85;7.03;;;;;;;15.58;100.00;101825.00;5097297;28;20020;-61
2022/05/18 00:50:47;;;;;;;9.30;7.72;;;;;;;15.56;100.00;101824.06;5099457;28;20486;-61
2022/05/18 00:53:48;;;;;;;7.93;6.90;;;;;;;15.51;100.00;101820.47;5100349;28;20020;-61
2022/05/18 00:56:19;;;;;;;8.63;7.80;;;;;;;15.48;100.00;101820.38;5074503;28;20081;-61
2022/05/18 00:58:47;;;;;;;;;;;;;;;15.42;100.00;101826.31;5095510;28;20027;-60
2022/05/18 01:01:14;;;;;;;8.10;6.88;;;;;;;15.39;100.00;101821.03;5096629;28;19914;-60
2022/05/18 01:03:45;;;;;;;8.48;7.22;;;;;;;15.36;100.00;101816.56;5098368;28;20063;-61
2022/05/18 01:06:24;;;;;;;7.90;6.82;;;;;;;15.35;100.00;101820.03;5097076;28;20020;-61
2022/05/18 01:08:56;;;;;;;7.80;6.95;;;;;;;15.30;100.00;101826.88;5100260;28;20051;-61
2022/05/18 01:11:22;;;;;;;7.78;7.07;;;;;;;15.28;100.00;101822.44;5093485;28;20507;-60
2022/05/18 01:13:48;;;;;;;7.93;6.60;;;;;;;15.26;100.00;101819.78;5096949;28;20095;-61
2022/05/18 01:16:14;;;;;;;10.05;7.25;;;;;;;15.24;100.00;101827.56;5098487;28;20095;-61
2022/05/18 01:18:39;;;;;;;7.50;6.80;;;;;;;15.19;100.00;101829.19;5097480;28;20232;-60
2022/05/18 01:21:04;;;;;;;8.82;7.70;;;;;;;15.17;100.00;101823.03;5098914;28;20675;-61
2022/05/18 01:23:45;;;;;;;9.15;7.18;;;;;;;15.15;100.00;101826.44;5097155;28;20028;-61
2022/05/18 01:26:40;;;;;;;9.27;6.80;;;;;;;15.08;100.00;101821.03;5102881;28;20391;-61
2022/05/18 01:29:06;;;;;;;8.63;7.40;;;;;;;15.07;100.00;101824.50;5093535;28;20024;-61
2022/05/18 01:31:42;;;;;;;7.60;6.97;;;;;;;15.02;100.00;101818.22;5098222;28;20028;-60
2022/05/18 01:34:08;;;;;;;10.00;7.15;;;;;;;14.96;100.00;101820.69;5094142;28;20031;-61
2022/05/18 01:36:33;;;;;;;9.05;6.75;;;;;;;14.92;100.00;101826.63;5096527;28;20476;-60
2022/05/18 01:39:00;;;;;;;8.05;7.32;;;;;;;14.88;100.00;101826.56;5096503;28;20016;-60
2022/05/18 01:41:28;;;;;;;7.90;7.22;;;;;;;14.88;100.00;101831.78;5096678;28;20099;-61
2022/05/18 01:43:56;;;;;;;8.18;7.38;;;;;;;14.86;100.00;101825.63;5103751;28;20042;-60
2022/05/18 01:46:22;;;;;;;9.80;7.68;;;;;;;14.86;100.00;101830.84;5095845;28;20065;-61
2022/05/18 01:48:52;;;;;;;8.02;6.70;;;;;;;14.87;100.00;101826.50;5097522;28;20027;-61
2022/05/18 01:51:35;;;;;;;8.43;7.43;;;;;;;14.88;100.00;101826.56;5094423;28;20060;-60
2022/05/18 01:54:01;;;;;;;7.63;6.90;;;;;;;14.86;100.00;101823.00;5093397;28;20020;-61
2022/05/18 01:56:26;;;;;;;8.35;7.30;;;;;;;14.85;100.00;101822.97;5095553;28;20024;-60
2022/05/18 01:58:52;;;;;;;8.43;7.57;;;;;;;14.84;100.00;101821.22;5098269;28;20556;-61
2022/05/18 02:01:18;;;;;;;10.07;7.68;;;;;;;14.81;100.00;101821.97;5099991;28;20027;-61
2022/05/18 02:03:43;;;;;;;9.30;7.57;;;;;;;14.79;100.00;101828.84;5098206;28;20118;-60
2022/05/18 02:06:09;;;;;;;8.60;7.68;;;;;;;14.75;100.00;101824.41;5103954;28;20023;-60
2022/05/18 02:08:34;;;;;;;10.15;7.95;;;;;;;14.71;100.00;101827.72;5096396;28;20433;-61
2022/05/18 02:11:00;;;;;;;10.88;7.93;;;;;;;14.71;100.00;101825.13;5098004;28;20012;-61
2022/05/18 02:13:25;;;;;;;11.07;8.30;;;;;;;14.68;100.00;101819.81;5096520;28;20016;-61
2022/05/18 02:15:50;;;;;;;8.82;8.02;;;;;;;14.65;100.00;101831.03;5096756;28;20019;-61
2022/05/18 02:18:16;;;;;;;10.73;7.80;;;;;;;14.63;100.00;101822.28;5104902;28;20024;-60
2022/05/18 02:20:42;;;;;;;11.05;8.70;;;;;;;14.60;100.00;101828.28;5099753;28;20059;-61
2022/05/18 02:23:08;;;;;;;8.68;7.85;;;;;;;14.56;100.00;101831.63;5099655;28;20024;-60
2022/05/18 02:25:34;;;;;;;8.55;7.68;;;;;;;14.55;100.00;101816.84;5098225;28;20089;-61
2022/05/18 02:28:00;;;;;;;9.13;8.23;;;;;;;14.55;100.00;101823.78;5101817;28;20352;-60
2022/05/18 02:30:25;;;;;;;10.85;7.47;;;;;;;14.52;100.00;101819.31;5101912;28;20032;-61
2022/05/18 02:32:51;;;;;;;9.70;7.65;;;;;;;14.48;100.00;101818.34;5102862;28;20020;-60
2022/05/18 02:35:16;;;;;;;8.43;7.63;;;;;;;14.46;100.00;101808.72;5099735;28;20438;-60
2022/05/18 02:37:41;;;;;;;9.32;8.25;;;;;;;14.44;100.00;101815.59;5100945;28;20024;-60
2022/05/18 02:40:09;;;;;;;10.57;8.85;;;;;;;14.45;100.00;101818.25;5102368;28;20022;-60
2022/05/18 02:42:35;;;;;;;9.10;8.30;;;;;;;14.46;100.00;101816.53;5107890;28;20029;-61
2022/05/18 02:45:00;;;;;;;10.02;8.45;;;;;;;14.46;100.00;101827.88;5103451;28;20027;-61
2022/05/18 02:47:26;;;;;;;9.43;8.50;;;;;;;14.45;100.00;101825.19;5101411;28;20095;-61
2022/05/18 02:49:51;;;;;;;9.45;8.55;;;;;;;14.43;100.00;101819.06;5109408;28;20042;-60
2022/05/18 02:52:17;;;;;;;9.05;8.20;;;;;;;14.43;100.00;101816.47;5096724;28;20357;-61
2022/05/18 02:57:27;;;;;;;11.13;9.10;;;;;;;14.44;100.00;101823.44;5098329;28;20047;-61
2022/05/18 02:59:52;;;;;;;8.98;7.95;;;;;;;14.44;100.00;101826.03;5108510;28;20015;-61
2022/05/18 03:02:17;;;;;;;10.00;9.00;;;;;;;14.43;100.00;101825.16;5100868;28;20068;-60
2022/05/18 03:04:42;;;;;;;9.82;8.82;;;;;;;14.40;100.00;101820.72;5098028;28;20461;-60
2022/05/18 03:07:09;;;;;;;9.55;8.73;;;;;;;14.40;100.00;101825.94;5096794;28;20016;-60
2022/05/18 03:09:34;;;;;;;10.55;8.70;;;;;;;14.41;100.00;101825.09;5100640;28;20027;-60
2022/05/18 03:11:59;;;;;;;10.38;8.60;;;;;;;14.43;100.00;101829.50;5107202;28;20023;-60
2022/05/18 03:14:25;;;;;;;10.10;9.20;;;;;;;14.45;100.00;101833.00;5109033;28;20423;-60
2022/05/18 03:16:51;;;;;;;11.95;9.10;;;;;;;14.49;100.00;101837.50;5096460;28;20023;-61
2022/05/18 03:19:17;;;;;;;11.00;9.48;;;;;;;14.52;100.00;101833.25;5100333;28;20034;-61
2022/05/18 03:24:26;;;;;;;11.43;8.35;;;;;;;14.61;100.00;101840.50;5097392;28;20031;-60
2022/05/18 03:26:51;;;;;;;9.52;8.60;;;;;;;14.64;100.00;101835.34;5095821;28;20016;-61
2022/05/18 03:29:17;;;;;;;10.13;8.80;;;;;;;14.70;100.00;101839.00;5099696;28;20032;-60
2022/05/18 03:31:43;;;;;;;9.35;8.45;;;;;;;14.73;100.00;101849.53;5096373;28;20102;-60
2022/05/18 03:34:08;;;;;;;10.60;9.60;;;;;;;14.76;100.00;101849.63;5099946;28;20022;-60
2022/05/18 03:36:34;;;;;;;11.00;9.95;;;;;;;14.79;100.00;101852.31;5100376;28;20391;-60
2022/05/18 03:39:00;;;;;;;11.90;9.40;;;;;;;14.82;100.00;101855.06;5099205;28;20074;-61
2022/05/18 03:41:26;;;;;;;12.52;9.48;;;;;;;14.86;100.00;101853.41;5098999;28;20019;-60
2022/05/18 03:43:51;;;;;;;9.82;8.93;;;;;;;14.89;100.00;101857.00;5099069;28;20031;-60
2022/05/18 03:46:17;;;;;;;10.60;9.43;;;;;;;14.94;100.00;101865.00;5100939;28;20114;-60
2022/05/18 03:48:43;;;;;;;10.10;9.02;;;;;;;14.97;100.00;101858.97;5098797;28;20020;-60
2022/05/18 03:51:13;;;;;;;12.20;9.30;;;;;;;14.98;100.00;101855.53;5098409;28;20020;-60
2022/05/18 03:53:39;;;;;;;11.07;9.15;;;;;;;14.98;100.00;101860.75;5100736;28;20184;-61
2022/05/18 03:56:05;;;;;;;10.30;9.02;;;;;;;15.00;100.00;101865.16;5098865;28;20023;-61
2022/05/18 03:58:31;;;;;;;10.68;9.50;;;;;;;15.02;100.00;101867.81;5100976;28;20088;-61
2022/05/18 04:01:08;;;;;;;12.52;9.40;;;;;;;15.02;100.00;101867.81;5100636;28;20584;-60
2022/05/18 04:03:33;;;;;;;10.75;9.40;;;;;;;15.04;100.00;101871.38;5099512;28;20045;-60
2022/05/18 04:05:58;;;;;;;11.45;10.35;;;;;;;15.05;100.00;101867.94;5099887;28;20028;-60
2022/05/18 04:08:23;;;;;;;11.15;9.85;;;;;;;15.07;100.00;101866.25;5101262;28;20039;-60
2022/05/18 04:10:49;;;;;;;10.30;9.20;;;;;;;15.09;100.00;101868.91;5106128;28;20019;-60
2022/05/18 04:13:20;;;;;;;10.68;9.63;;;;;;;15.11;100.00;101862.88;5097482;28;20439;-60
2022/05/18 04:15:46;;;;;;;10.02;9.02;;;;;;;15.11;100.00;101857.66;5098699;28;20020;-61
2022/05/18 04:18:11;;;;;;;11.05;9.77;;;;;;;15.13;100.00;101853.38;5099539;28;20030;-60
2022/05/18 04:20:38;;;;;;;12.38;11.07;;;;;;;15.17;100.00;101856.97;5098726;28;20028;-61
2022/05/18 04:23:04;;;;;;;12.40;11.15;;;;;;;15.22;100.00;101859.69;5099616;28;20022;-60
2022/05/18 04:25:29;;;;;;;12.43;11.23;;;;;;;15.25;100.00;101859.81;5098246;28;20032;-61
2022/05/18 04:27:55;;;;;;;10.68;9.57;;;;;;;15.31;100.00;101866.94;5099063;28;20194;-60
2022/05/18 04:30:24;;;;;;;10.48;8.57;;;;;;;15.37;100.00;101867.09;5094686;28;20040;-60
2022/05/18 04:32:49;;;;;;;10.68;8.65;;;;;;;15.43;100.00;101869.00;5101630;28;20555;-61
2022/05/18 04:35:19;;;;;;;8.90;8.07;;;;;;;15.51;100.00;101862.25;5096894;28;20092;-60
2022/05/18 04:37:45;;;;;;;9.30;8.43;;;;;;;15.59;100.00;101873.81;5100065;28;20076;-61
2022/05/18 04:40:10;;;;;;;11.38;8.88;;;;;;;15.68;100.00;101874.91;5098652;28;20024;-61
2022/05/18 04:42:36;;;;;;;8.95;8.05;;;;;;;15.76;100.00;101878.59;5099148;28;20037;-60
2022/05/18 04:45:03;;;;;;;9.13;7.72;;;;;;;15.84;100.00;101866.63;5097510;28;20058;-60
2022/05/18 04:47:28;;;;;;;8.77;7.97;;;;;;;15.94;100.00;101878.19;5100945;28;20038;-60
2022/05/18 04:49:55;;;;;;;8.35;7.60;;;;;;;16.02;100.00;101870.59;5086853;28;20028;-61
2022/05/18 04:52:21;;;;;;;9.15;8.13;;;;;;;16.12;100.00;101879.56;5086095;28;20032;-60
2022/05/18 04:54:47;;;;;;;10.20;8.02;;;;;;;16.22;100.00;101887.63;5087894;28;20032;-60
2022/05/18 04:57:13;;;;;;;10.13;7.55;;;;;;;16.31;100.00;101885.25;5087468;28;20035;-60
2022/05/18 04:59:39;;;;;;;9.55;7.03;;;;;;;16.40;100.00;101892.44;5087943;28;20020;-59
2022/05/18 05:02:05;;;;;;;8.45;7.00;;;;;;;16.47;100.00;101899.59;5087893;28;20039;-60
2022/05/18 05:04:31;;;;;;;10.80;6.72;;;;;;;16.52;99.67;101897.97;5087530;28;20047;-61
2022/05/18 05:06:56;;;;;;;7.25;6.10;;;;;;;16.57;98.73;101900.69;5094238;28;20028;-61
2022/05/18 05:09:24;;;;;;;7.68;6.35;;;;;;;16.63;98.40;101910.41;5086823;28;20070;-61
2022/05/18 05:11:49;;;;;;;6.22;5.63;;;;;;;16.70;97.64;101907.09;5094322;28;20440;-60
2022/05/18 05:14:15;;;;;;;8.00;5.70;;;;;;;16.80;97.16;101913.44;5087631;28;20055;-61
2022/05/18 05:16:40;;;;;;;5.47;4.70;;;;;;;16.93;96.58;101910.25;5087752;28;20028;-60
2022/05/18 05:19:05;;;;;;;8.13;5.13;;;;;;;17.09;96.01;101909.72;5087706;28;20364;-60
2022/05/18 05:21:31;;;;;;;7.90;4.97;;;;;;;17.21;94.40;101915.25;5087205;28;20456;-60
2022/05/18 05:23:56;;;;;;;5.90;4.57;;;;;;;17.38;93.77;101912.09;5087473;28;20032;-61
2022/05/18 05:26:21;;;;;;;6.05;4.10;;;;;;;17.56;92.66;101910.72;5087328;28;20029;-61
2022/05/18 05:28:47;;;;;;;6.85;4.57;;;;;;;17.74;90.83;101915.41;5087505;28;20110;-61
2022/05/18 05:31:12;;;;;;;5.65;4.25;;;;;;;17.89;89.48;101920.06;5087001;28;20024;-61
2022/05/18 05:33:40;;;;;;;4.88;4.32;;;;;;;18.00;88.43;101923.78;5087421;28;20115;-60
2022/05/18 05:36:06;;;;;;;6.00;4.00;;;;;;;18.08;87.55;101920.41;5087396;28;20052;-61
2022/05/18 05:38:32;;;;;;;5.43;4.47;;;;;;;18.19;85.85;101911.00;5087917;28;20437;-60
2022/05/18 05:41:00;;;;;;;5.28;4.10;;;;;;;18.28;85.82;101914.63;5087126;28;20029;-61
2022/05/18 05:43:26;;;;;;;5.82;3.95;;;;;;;18.30;84.75;101916.44;5086933;28;20115;-61
2022/05/18 05:46:00;;;;;;;4.90;3.60;;;;;;;18.36;84.76;101924.44;5089683;28;20092;-61
2022/05/18 05:48:26;;;;;;;5.53;3.58;;;;;;;18.40;83.98;101927.09;5108178;28;20050;-61
2022/05/18 05:50:52;;;;;;;4.00;3.60;;;;;;;18.41;83.31;101928.84;5107863;28;20102;-61
2022/05/18 05:53:18;;;;;;;4.90;3.67;;;;;;;18.43;84.82;101935.91;5106745;28;20032;-61
2022/05/18 05:55:43;;;;;;;6.00;4.18;;;;;;;18.45;86.24;101936.81;5106821;28;20348;-61
2022/05/18 05:58:08;;;;;;;7.80;4.50;;;;;;;18.49;86.51;101937.75;5109937;28;20023;-61
2022/05/18 06:00:33;;;;;;;9.45;3.85;;;;;;;18.57;84.08;101938.75;5110831;27;20047;-60
2022/05/18 06:02:59;;;;;;;6.07;3.85;;;;;;;18.71;82.73;101944.22;5110058;28;20027;-60
2022/05/18 06:05:24;;;;;;;5.38;4.07;;;;;;;18.91;83.23;101954.13;5108898;27;20179;-61
2022/05/18 06:07:49;;;;;;;6.72;4.13;;;;;;;19.10;82.33;101950.91;5108936;27;20023;-61
2022/05/18 06:10:15;;;;;;;6.20;3.85;;;;;;;19.20;80.07;101956.34;5108844;28;20230;-61
2022/05/18 06:12:40;;;;;;;6.35;3.88;;;;;;;19.33;79.86;101945.97;5108918;28;20121;-61
2022/05/18 06:15:08;;;;;;;8.75;4.10;;;;;;;19.44;77.06;101952.28;5109367;28;20156;-61
2022/05/18 06:17:33;;;;;;;7.22;4.20;;;;;;;19.54;76.30;101958.50;5109523;28;20023;-60
2022/05/18 06:19:59;;;;;;;4.50;3.35;;;;;;;19.56;76.46;101948.91;5109536;28;20034;-61
2022/05/18 06:22:27;;;;;;;6.28;4.38;;;;;;;19.56;76.89;101962.03;5109653;28;20020;-61
2022/05/18 06:24:52;;;;;;;5.50;3.50;;;;;;;19.54;77.12;101958.50;5109750;28;20023;-60
2022/05/18 06:27:19;;;;;;;8.20;4.00;;;;;;;19.52;78.10;101959.34;5095347;27;20090;-61
2022/05/18 06:29:44;;;;;;;5.70;4.30;;;;;;;19.50;78.20;101966.34;5093630;27;20074;-60
2022/05/18 06:32:10;;;;;;;6.70;4.20;;;;;;;19.48;78.35;101968.06;5095507;28;20065;-62
2022/05/18 06:34:35;;;;;;;5.88;4.30;;;;;;;19.48;77.99;101973.31;5091201;27;20101;-61
2022/05/18 06:37:03;;;;;;;8.23;4.50;;;;;;;19.47;78.11;101977.69;5094246;28;20024;-62
2022/05/18 06:39:28;;;;;;;7.05;3.70;;;;;;;19.49;78.24;101975.06;5098088;28;20051;-61
2022/05/18 06:41:54;;;;;;;8.75;3.90;;;;;;;19.51;78.41;101978.63;5092598;27;20357;-61
2022/05/18 06:44:19;;;;;;;6.70;4.25;;;;;;;19.53;78.42;101983.03;5098334;27;20023;-61
2022/05/18 06:46:47;;;;;;;5.95;3.95;;;;;;;19.58;78.03;101980.47;5096417;27;20038;-61
2022/05/18 06:49:13;;;;;;;5.57;3.80;;;;;;;19.62;76.49;101987.53;5089210;28;20031;-60
2022/05/18 06:51:41;;;;;;;6.78;3.97;;;;;;;19.65;76.22;101987.56;5090316;28;20488;-61
2022/05/18 06:54:07;;;;;;;6.35;3.92;;;;;;;19.70;75.45;101984.13;5090285;28;20055;-61
2022/05/18 06:56:36;;;;;;;8.02;3.42;;;;;;;19.73;75.36;101985.03;5089874;28;20063;-60
2022/05/18 06:59:02;;;;;;;5.82;3.70;;;;;;;19.77;74.72;101985.94;5090198;28;20375;-61
2022/05/18 07:01:28;;;;;;;5.95;3.60;;;;;;;19.80;74.33;101985.97;5089824;28;20523;-61
2022/05/18 07:03:55;;;;;;;7.65;4.18;;;;;;;19.84;74.30;101995.66;5090117;28;20040;-61
2022/05/18 07:06:23;;;;;;;5.57;3.63;;;;;;;19.91;74.98;101999.25;5089648;28;20486;-61
2022/05/18 07:08:54;;;;;;;5.78;3.30;;;;;;;19.95;75.06;102000.16;5090178;28;20024;-61
2022/05/18 07:11:20;;;;;;;5.95;4.10;;;;;;;19.99;74.00;102002.84;5089297;28;20035;-61
2022/05/18 07:13:46;;;;;;;7.82;4.75;;;;;;;20.01;73.66;102003.75;5089865;28;20032;-62
2022/05/18 07:16:12;;;;;;;9.82;4.82;;;;;;;20.08;73.94;102009.97;5090159;28;20020;-61
2022/05/18 07:18:37;;;;;;;7.55;4.90;;;;;;;20.27;74.43;102007.56;5090025;28;20024;-60
2022/05/18 07:21:04;;;;;;;12.82;5.68;;;;;;;20.48;73.61;102012.13;5089345;28;20202;-61
2022/05/18 07:23:30;;;;;;;8.32;5.45;;;;;;;20.70;73.27;102008.78;5090076;28;20035;-61
2022/05/18 07:25:57;;;;;;;10.25;5.75;;;;;;;20.87;73.46;102016.81;5089451;28;20393;-61
2022/05/18 07:28:24;;;;;;;11.55;7.05;;;;;;;20.95;72.83;102014.28;5089256;28;20082;-61
2022/05/18 07:30:51;;;;;;;9.18;7.68;;;;;;;20.99;72.58;102021.34;5089603;28;20027;-61
2022/05/18 07:33:17;;;;;;;10.98;8.52;;;;;;;21.01;71.41;102022.25;5089470;28;20066;-61
2022/05/18 07:35:43;;;;;;;11.05;9.05;;;;;;;20.98;71.73;102016.94;5089091;28;20493;-61
2022/05/18 07:38:09;;;;;;;11.98;9.18;;;;;;;20.98;72.02;102024.84;5092827;28;20066;-61
2022/05/18 07:40:34;;;;;;;10.43;8.88;;;;;;;20.97;72.34;102023.09;5093369;28;20059;-61
2022/05/18 07:43:01;;;;;;;10.40;8.40;;;;;;;20.97;72.94;102020.44;5089079;28;20035;-61
2022/05/18 07:45:28;;;;;;;9.45;8.45;;;;;;;20.97;73.79;102013.44;5108341;28;20121;-61
2022/05/18 07:47:53;;;;;;;11.20;8.70;;;;;;;20.98;74.25;102017.81;5108115;28;20022;-61
2022/05/18 07:50:20;;;;;;;10.35;9.13;;;;;;;20.95;74.36;102023.06;5100085;28;20118;-61
2022/05/18 07:52:45;;;;;;;9.68;7.60;;;;;;;20.94;74.89;102028.31;5100706;28;20032;-61
2022/05/18 07:55:11;;;;;;;7.80;6.70;;;;;;;20.93;74.70;102029.16;5103111;28;20033;-62
2022/05/18 07:57:37;;;;;;;8.65;7.15;;;;;;;20.96;74.80;102034.47;5108194;28;20026;-61
2022/05/18 08:00:03;;;;;;;8.57;6.95;;;;;;;21.08;75.63;102033.69;5099987;28;20036;-61
2022/05/18 08:02:32;;;;;;;10.38;8.48;;;;;;;21.19;74.55;102033.78;5098412;28;20027;-61
2022/05/18 08:04:57;;;;;;;8.95;7.30;;;;;;;21.43;74.60;102032.13;5088454;28;20081;-61
2022/05/18 08:07:23;;;;;;;9.88;7.25;;;;;;;21.73;72.68;102038.41;5088553;28;20024;-61
2022/05/18 08:15:17;;;;;;;12.23;6.90;;;;;;;21.89;72.35;102043.81;5108183;28;20506;-61
2022/05/18 08:17:44;;;;;;;8.25;7.45;;;;;;;22.04;72.64;102043.84;5108022;28;20028;-62
2022/05/18 08:20:13;;;;;;;12.20;8.05;;;;;;;22.40;72.58;102045.66;5107884;28;20395;-61
2022/05/18 08:22:39;;;;;;;7.65;6.95;;;;;;;22.83;71.03;102041.34;5104777;28;20476;-61
2022/05/18 08:25:05;;;;;;;11.02;7.60;;;;;;;23.25;68.20;102041.25;5098544;28;20129;-61
2022/05/18 08:27:30;;;;;;;12.90;8.43;;;;;;;23.47;66.30;102041.25;5094022;28;20035;-61
2022/05/18 08:30:00;;;;;;;11.25;8.25;;;;;;;23.61;65.80;102039.44;5097528;28;20054;-61
2022/05/18 08:32:25;;;;;;;10.70;7.60;;;;;;;23.71;66.05;102037.59;5095908;28;20038;-62
2022/05/18 08:34:50;;;;;;;9.13;8.18;;;;;;;23.96;66.68;102040.13;5087727;28;20290;-61
2022/05/18 08:37:16;;;;;;;9.45;7.15;;;;;;;24.25;65.56;102040.88;5087964;28;20026;-62
2022/05/18 08:39:41;;;;;;;8.10;7.25;;;;;;;24.42;63.99;102035.47;5088274;28;20452;-62
2022/05/18 08:42:08;;;;;;;11.65;8.00;;;;;;;24.54;62.72;102046.84;5100333;28;20055;-61
2022/05/18 08:44:36;;;;;;;8.70;7.57;;;;;;;24.72;64.28;102042.31;5107589;28;20069;-62
2022/05/18 08:47:31;;;;;;;10.18;8.02;;;;;;;24.88;62.68;102045.72;5107131;28;20110;-62
2022/05/18 08:50:10;;;;;;;8.93;7.80;;;;;;;24.94;63.29;102046.56;5107021;28;20023;-62
2022/05/18 08:52:54;;;;;;;10.02;7.97;;;;;;;25.01;62.32;102041.16;5104092;28;20039;-62
2022/05/18 08:55:41;;;;;;;9.57;7.30;;;;;;;25.24;62.75;102051.53;5101039;28;20488;-62
2022/05/18 08:58:15;;;;;;;8.40;7.35;;;;;;;25.30;61.31;102043.53;5107259;28;20028;-62
2022/05/18 09:00:44;;;;;;;11.10;8.07;;;;;;;25.44;61.84;102045.13;5107396;28;20080;-62
2022/05/18 09:03:20;;;;;;;9.38;7.97;;;;;;;25.49;60.44;102045.09;5107593;28;20023;-62
2022/05/18 09:05:56;;;;;;;9.40;7.32;;;;;;;25.61;60.73;102046.72;5107240;28;20028;-62
2022/05/18 09:08:27;;;;;;;8.93;6.55;;;;;;;25.78;61.62;102057.13;5098179;28;20514;-62
2022/05/18 09:10:52;;;;;;;;;;;;;;;25.89;59.16;102052.56;5097049;28;20051;-62
2022/05/18 09:13:18;;;;;;;8.18;5.95;;;;;;;26.06;60.59;102046.16;5100649;28;20000;-62
2022/05/18 09:15:58;;;;;;;8.85;7.03;;;;;;;26.17;60.13;102050.41;5097058;28;20032;-61
2022/05/18 09:18:28;;;;;;;;;;;;;;;26.25;60.64;102043.19;5100335;28;20493;-62
2022/05/18 09:21:16;;;;;;;7.07;5.65;;;;;;;26.42;60.23;102035.03;5096092;28;19916;-63
2022/05/18 09:23:41;;;;;;;8.63;6.20;;;;;;;26.58;59.19;102046.28;5099751;28;20072;-62
2022/05/18 09:26:19;;;;;;;5.68;4.32;;;;;;;26.72;58.98;102042.47;5096601;28;20452;-62
2022/05/18 09:29:04;;;;;;;5.75;4.05;;;;;;;26.77;56.75;102050.41;5097965;28;20479;-62
2022/05/18 09:31:45;;;;;;;4.05;3.38;;;;;;;26.38;54.88;102047.47;5102157;28;20114;-62
2022/05/18 09:34:44;;;;;;;3.78;3.30;;;;;;;26.22;56.61;102041.50;5108466;28;20410;-62
2022/05/18 09:37:30;;;;;;;5.03;4.25;;;;;;;26.04;57.79;102049.72;5104921;28;20031;-62
2022/05/18 09:40:06;;;;;;;5.72;4.28;;;;;;;25.98;58.50;102043.59;5097862;28;20065;-62
2022/05/18 09:42:37;;;;;;;7.35;4.80;;;;;;;26.05;57.81;102049.69;5102339;28;20115;-62
2022/05/18 09:45:10;;;;;;;6.68;4.35;;;;;;;25.97;58.16;102043.63;5104522;28;20023;-62
2022/05/18 09:47:44;;;;;;;5.10;4.60;;;;;;;25.85;56.66;102050.84;5104664;28;20502;-62
2022/05/18 09:50:10;;;;;;;9.23;4.88;;;;;;;25.77;58.57;102056.28;5102807;28;20027;-62
2022/05/18 09:52:38;;;;;;;6.75;4.95;;;;;;;25.86;58.14;102051.72;5102048;28;20019;-62
2022/05/18 09:55:08;;;;;;;6.97;4.88;;;;;;;25.99;57.96;102053.34;5104554;28;20455;-62
2022/05/18 09:57:50;;;;;;;8.10;5.47;;;;;;;26.17;60.38;102053.97;5097711;28;20027;-62
2022/05/18 10:00:22;;;;;;;6.85;5.28;;;;;;;26.23;58.65;102051.19;5103586;28;20086;-62
2022/05/18 10:08:29;;;;;;;5.45;3.63;;;;;;;26.71;57.47;102048.72;5090409;28;20032;-62
2022/05/18 10:10:58;;;;;;;8.02;3.92;;;;;;;26.89;54.19;102051.94;5104674;28;20028;-62
2022/05/18 10:13:29;;;;;;;5.80;4.03;;;;;;;26.88;53.77;102052.88;5110468;28;20348;-63
2022/05/18 10:16:27;;;;;;;4.82;3.60;;;;;;;26.98;54.62;102054.44;5110451;28;20486;-62
2022/05/18 10:18:57;;;;;;;4.53;3.90;;;;;;;27.08;53.23;102055.16;5110073;28;20038;-62
2022/05/18 10:21:55;;;;;;;5.78;3.05;;;;;;;27.04;54.83;102049.03;5110122;28;20062;-62
2022/05/18 10:24:23;;;;;;;5.45;3.25;;;;;;;26.98;53.14;102044.66;5105735;28;20090;-63
2022/05/18 10:27:17;;;;;;;5.55;3.58;;;;;;;27.14;53.53;102039.13;5109515;28;20032;-63
2022/05/18 10:29:49;;;;;;;3.55;3.17;;;;;;;27.30;52.78;102042.34;5110095;28;20031;-62
2022/05/18 10:32:24;;;;;;;5.55;3.40;;;;;;;27.29;51.96;102043.22;5108569;28;20036;-62
2022/05/18 10:34:51;;;;;;;4.32;2.75;;;;;;;27.44;54.75;102046.50;5107834;28;20036;-62
2022/05/18 10:37:31;;;;;;;4.03;2.63;;;;;;;27.48;53.89;102045.53;5105173;28;20123;-61
2022/05/18 10:40:00;;;;;;;5.45;2.58;;;;;;;27.62;53.66;102044.34;5095163;28;20035;-63
2022/05/18 10:42:39;;;;;;;4.33;3.00;;;;;;;27.75;53.13;102043.22;5100900;28;20130;-62
2022/05/18 10:45:22;;;;;;;4.60;3.03;;;;;;;27.79;52.97;102036.06;5091726;28;20038;-62
2022/05/18 10:47:50;;;;;;;5.80;3.10;;;;;;;27.83;52.28;102031.53;5096033;28;20031;-63
2022/05/18 10:50:20;;;;;;;4.70;3.35;;;;;;;27.76;51.46;102036.09;5096832;28;20887;-63
2022/05/18 10:52:47;;;;;;;3.85;3.00;;;;;;;27.79;52.60;102036.91;5100664;28;20031;-63
2022/05/18 10:55:16;;;;;;;14.00;3.53;;;;;;;27.75;49.88;102032.59;5094224;28;20008;-62
2022/05/18 10:58:00;;;;;;;2.85;1.90;;;;;;;27.83;53.13;102026.22;5099112;28;20076;-62
2022/05/18 11:00:52;;;;;;;5.68;2.38;;;;;;;27.99;51.50;102026.75;5096857;28;20361;-63
2022/05/18 11:03:34;;;;;;;4.85;1.90;;;;;;;28.11;51.37;102026.44;5099781;28;20054;-62
2022/05/18 11:06:13;;;;;;;3.55;1.75;;;;;;;28.17;50.42;102026.28;5098013;28;20467;-63
2022/05/18 11:08:39;;;;;;;5.13;1.75;;;;;;;28.19;49.55;102020.06;5094335;28;20452;-63
2022/05/18 11:11:44;;;;;;;6.43;1.98;;;;;;;28.15;50.57;102027.25;5098966;28;20371;-63
2022/05/18 11:14:12;;;;;;;4.03;2.30;;;;;;;28.10;48.03;102023.81;5089961;28;20035;-63
2022/05/18 11:17:13;;;;;;;7.68;2.30;;;;;;;28.10;50.18;102023.81;5098732;28;20019;-63
2022/05/18 11:19:48;;;;;;;3.20;2.17;;;;;;;28.10;48.20;102019.34;5095147;28;20064;-62
2022/05/18 11:22:56;;;;;;;5.15;2.28;;;;;;;28.06;47.94;102020.34;5103056;28;20035;-62
2022/05/18 11:25:45;;;;;;;3.15;2.20;;;;;;;28.12;48.50;102016.66;5100785;28;20560;-63
2022/05/18 11:28:40;;;;;;;2.88;1.92;;;;;;;28.16;50.33;102018.34;5099943;28;20098;-62
2022/05/18 11:31:34;;;;;;;3.47;2.35;;;;;;;28.28;49.43;102011.81;5099895;28;20036;-62
2022/05/18 11:37:26;;;;;;;4.75;2.30;;;;;;;28.53;49.39;102006.78;5043864;28;20896;-62
2022/05/18 11:40:10;;;;;;;4.70;3.20;;;;;;;28.26;47.15;102006.53;5040479;28;20488;-61
2022/05/18 11:42:36;;;;;;;3.67;2.95;;;;;;;28.28;49.42;102004.72;5044540;28;20118;-62
2022/05/18 11:45:55;;;;;;;5.23;2.43;;;;;;;28.36;49.17;102001.91;5044053;28;20076;-61
2022/05/18 11:48:30;;;;;;;4.22;3.10;;;;;;;28.43;49.07;102002.63;5041432;28;20290;-61
2022/05/18 11:51:26;;;;;;;7.25;2.78;;;;;;;28.55;51.52;101995.22;5040823;28;20408;-62